Startpagina
METAR-TAF:

METAR-TAF

Vliegvelden :

Macas, Ecuador

breedte: 02-17-57-S, lengte: 078-07-15-W, hoogte: 1052 m

Actueel weer

Dit bericht is 1 uur en het 13 minuten geleden gemaakt, om 18:00 UTC
Wind 6 kt uit het oostnoordoosten
Temperatuur 29°C
Vochtigheid 52%
Druk 1015 hPa
Zicht 10 km of meer
Verspreide wolken op 3000 ft
Verspreide wolken op 10000 ft

METAR: SEMC 281800Z 06006KT 9999 SCT030 SCT100 29/18 Q1015 RMK A2998

Tijdstip: 14:13 (19:13 UTC)


TAF: ontbreekt

Waarnemingen en weersverwachtingen van meer dan 4000 vliegvelden (METAR en TAF).

De beschikbare stations zijn de gele en rode punten op de kaart.

Ga met uw muis naar het station om de naam te zien.

Klik dan om waarnemingen en weersverwachtingen te zien.

kaart wijzigen: klik op de groene knoppen met een zwart kruis om in te zoomen, op de groene knop met een streepje om uit te zoomen of op de groene pijlen voor aangrenzende kaarten.


METAR-TAF: